createdAt,value
2022-12-29T00:01:14.847Z,1.23
2022-12-29T00:03:43.562Z,1.58
2022-12-29T00:06:12.345Z,1.30
2022-12-29T00:08:43.954Z,1.50
2022-12-29T00:11:14.705Z,1.58
2022-12-29T00:14:01.645Z,1.30
2022-12-29T00:16:30.400Z,1.50
2022-12-29T00:18:59.106Z,1.30
2022-12-29T00:21:45.645Z,1.10
2022-12-29T00:24:33.666Z,1.23
2022-12-29T00:27:27.085Z,1.23
2022-12-29T00:30:14.280Z,1.40
2022-12-29T00:33:00.640Z,1.42
2022-12-29T00:35:32.128Z,1.20
2022-12-29T00:38:23.140Z,1.38
2022-12-29T00:41:09.123Z,1.35
2022-12-29T00:43:55.111Z,1.20
2022-12-29T00:46:24.842Z,1.02
2022-12-29T00:49:10.524Z,1.15
2022-12-29T00:51:39.153Z,1.35
2022-12-29T00:54:07.689Z,1.45
2022-12-29T00:56:36.433Z,1.08
2022-12-29T00:59:05.363Z,1.10
2022-12-29T01:01:35.763Z,1.10
2022-12-29T01:04:05.214Z,1.30
2022-12-29T01:06:34.275Z,1.30
2022-12-29T01:09:20.408Z,0.93
2022-12-29T01:11:49.860Z,1.02
2022-12-29T01:14:18.429Z,1.10
2022-12-29T01:16:48.382Z,1.40
2022-12-29T01:19:18.804Z,1.00
2022-12-29T01:21:47.442Z,1.10
2022-12-29T01:24:16.107Z,0.90
2022-12-29T01:26:45.563Z,0.90
2022-12-29T01:29:14.365Z,1.00
2022-12-29T01:31:42.824Z,1.02
2022-12-29T01:34:12.580Z,0.77
2022-12-29T01:36:40.931Z,1.00
2022-12-29T01:39:09.551Z,0.75
2022-12-29T01:41:38.034Z,0.90
2022-12-29T01:44:39.570Z,0.70
2022-12-29T01:47:10.396Z,0.88
2022-12-29T01:52:10.162Z,0.90
2022-12-29T01:54:42.850Z,0.98
2022-12-29T01:57:18.389Z,1.50
2022-12-29T01:59:53.312Z,0.90
2022-12-29T02:02:21.952Z,0.90
2022-12-29T02:04:52.193Z,0.63
2022-12-29T02:07:23.499Z,0.70
2022-12-29T02:09:53.873Z,0.85
2022-12-29T02:12:24.753Z,0.77
2022-12-29T02:14:58.158Z,0.70
2022-12-29T02:17:38.807Z,0.75
2022-12-29T02:20:35.462Z,0.73
2022-12-29T02:23:26.519Z,0.80
2022-12-29T02:26:18.047Z,0.73
2022-12-29T02:29:05.882Z,0.80
2022-12-29T02:31:43.705Z,0.60
2022-12-29T02:34:26.417Z,0.85
2022-12-29T02:39:36.793Z,0.43
2022-12-29T02:42:13.365Z,0.93
2022-12-29T02:44:50.718Z,0.63
2022-12-29T02:47:27.907Z,0.77
2022-12-29T02:50:04.003Z,0.70
2022-12-29T02:52:37.521Z,0.77
2022-12-29T02:55:05.749Z,0.70
2022-12-29T02:57:35.954Z,0.70
2022-12-29T03:00:08.813Z,0.88
2022-12-29T03:02:56.865Z,0.60
2022-12-29T03:05:48.826Z,0.57
2022-12-29T03:08:25.140Z,0.80
2022-12-29T03:11:03.975Z,0.80
2022-12-29T03:13:57.379Z,0.60
2022-12-29T03:16:34.578Z,0.60
2022-12-29T03:19:09.702Z,0.57
2022-12-29T03:21:59.169Z,0.70
2022-12-29T03:24:32.267Z,0.60
2022-12-29T03:27:03.417Z,0.70
2022-12-29T03:29:41.709Z,0.70
2022-12-29T03:32:13.926Z,0.40
2022-12-29T03:34:44.342Z,0.60
2022-12-29T03:37:16.390Z,0.60
2022-12-29T03:39:47.969Z,0.60
2022-12-29T03:42:22.301Z,0.70
2022-12-29T03:44:50.833Z,0.50
2022-12-29T03:47:20.689Z,0.60
2022-12-29T03:49:51.700Z,0.50
2022-12-29T03:52:20.429Z,0.60
2022-12-29T03:54:49.532Z,0.50
2022-12-29T03:57:18.611Z,0.70
2022-12-29T03:59:59.948Z,0.60
2022-12-29T04:02:31.504Z,0.50
2022-12-29T04:05:01.457Z,0.70
2022-12-29T04:07:30.077Z,0.50
2022-12-29T04:09:59.992Z,0.55
2022-12-29T04:12:29.932Z,0.50
2022-12-29T04:14:58.861Z,0.60
2022-12-29T04:17:27.520Z,0.60
2022-12-29T04:20:16.644Z,0.50
2022-12-29T04:22:46.703Z,0.60
2022-12-29T04:25:15.853Z,0.60
2022-12-29T04:27:45.020Z,0.68
2022-12-29T04:30:34.905Z,0.75
2022-12-29T04:33:11.297Z,0.50
2022-12-29T04:35:41.747Z,0.50
2022-12-29T04:38:12.315Z,0.50
2022-12-29T04:40:41.822Z,0.65
2022-12-29T04:43:12.049Z,0.57
2022-12-29T04:46:11.920Z,0.50
2022-12-29T04:48:50.055Z,0.50
2022-12-29T04:51:37.162Z,0.40
2022-12-29T04:54:07.941Z,0.60
2022-12-29T04:56:37.982Z,0.60
2022-12-29T04:59:07.476Z,0.60
2022-12-29T05:01:36.863Z,0.50
2022-12-29T05:04:05.636Z,0.50
2022-12-29T05:06:34.719Z,0.50
2022-12-29T05:09:04.150Z,0.40
2022-12-29T05:11:34.336Z,0.60
2022-12-29T05:14:03.721Z,0.60
2022-12-29T05:16:32.350Z,0.77
2022-12-29T05:19:01.773Z,0.70
2022-12-29T05:21:30.659Z,0.68
2022-12-29T05:24:00.713Z,0.70
2022-12-29T05:26:30.433Z,0.73
2022-12-29T05:29:20.542Z,0.75
2022-12-29T05:31:49.540Z,0.50
2022-12-29T05:34:18.469Z,0.75
2022-12-29T05:36:47.914Z,0.90
2022-12-29T05:39:17.563Z,0.63
2022-12-29T05:41:50.732Z,0.82
2022-12-29T05:44:31.235Z,0.70
2022-12-29T05:50:11.695Z,0.60
2022-12-29T05:53:19.122Z,0.60
2022-12-29T05:55:49.551Z,0.70
2022-12-29T05:58:19.367Z,0.70
2022-12-29T06:00:50.460Z,0.65
2022-12-29T06:03:19.273Z,0.60
2022-12-29T06:05:49.434Z,0.65
2022-12-29T06:08:18.983Z,0.50
2022-12-29T06:10:47.522Z,0.60
2022-12-29T06:13:16.414Z,0.70
2022-12-29T06:15:47.784Z,0.70
2022-12-29T06:18:20.181Z,0.60
2022-12-29T06:20:49.488Z,0.60
2022-12-29T06:23:20.428Z,0.90
2022-12-29T06:25:50.396Z,0.63
2022-12-29T06:28:19.391Z,0.70
2022-12-29T06:30:48.978Z,0.73
2022-12-29T06:33:18.806Z,0.90
2022-12-29T06:35:47.890Z,0.60
2022-12-29T06:38:17.160Z,0.80
2022-12-29T06:40:46.739Z,0.70
2022-12-29T06:43:34.877Z,0.63
2022-12-29T06:46:23.739Z,0.70
2022-12-29T06:48:53.519Z,0.75
2022-12-29T06:51:22.133Z,0.57
2022-12-29T06:53:50.794Z,0.68
2022-12-29T06:56:19.282Z,0.70
2022-12-29T06:58:47.928Z,0.93
2022-12-29T07:01:16.490Z,0.80
2022-12-29T07:03:44.980Z,1.05
2022-12-29T07:06:14.825Z,0.75
2022-12-29T07:08:43.445Z,0.68
2022-12-29T07:11:11.986Z,0.70
2022-12-29T07:13:40.606Z,0.90
2022-12-29T07:16:10.150Z,0.70
2022-12-29T07:18:38.835Z,0.90
2022-12-29T07:21:07.432Z,0.70
2022-12-29T07:23:37.281Z,0.70
2022-12-29T07:26:07.758Z,0.70
2022-12-29T07:28:39.024Z,0.70
2022-12-29T07:31:07.956Z,0.80
2022-12-29T07:33:36.518Z,0.73
2022-12-29T07:36:05.024Z,0.75
2022-12-29T07:38:33.671Z,0.88
2022-12-29T07:41:03.324Z,0.85
2022-12-29T07:43:31.933Z,0.70
2022-12-29T07:46:56.728Z,1.05
2022-12-29T07:49:24.096Z,0.70
2022-12-29T07:51:52.720Z,0.77
2022-12-29T07:54:21.266Z,0.90
2022-12-29T07:56:51.016Z,0.70
2022-12-29T07:59:19.596Z,0.90
2022-12-29T08:01:48.381Z,0.82
2022-12-29T08:04:17.046Z,0.98
2022-12-29T08:06:46.536Z,0.70
2022-12-29T08:09:21.931Z,0.68
2022-12-29T08:11:52.444Z,0.80
2022-12-29T08:14:21.215Z,0.75
2022-12-29T08:16:49.750Z,0.70
2022-12-29T08:19:18.501Z,0.70
2022-12-29T08:21:46.803Z,0.80
2022-12-29T08:24:15.437Z,0.73
2022-12-29T08:26:44.025Z,0.65
2022-12-29T08:29:13.746Z,0.80
2022-12-29T08:31:42.356Z,0.90
2022-12-29T08:34:10.626Z,0.80
2022-12-29T08:36:39.200Z,0.50
2022-12-29T08:39:07.834Z,0.82
2022-12-29T08:41:36.479Z,0.80
2022-12-29T08:44:05.084Z,0.90
2022-12-29T08:46:34.850Z,0.90
2022-12-29T08:49:03.387Z,0.90
2022-12-29T08:51:31.983Z,0.93
2022-12-29T08:54:00.633Z,0.80
2022-12-29T08:56:29.301Z,0.98
2022-12-29T08:58:59.742Z,0.77
2022-12-29T09:01:32.191Z,0.88
2022-12-29T09:04:18.120Z,0.75
2022-12-29T09:06:47.374Z,0.73
2022-12-29T09:09:16.092Z,0.70
2022-12-29T09:11:44.881Z,0.80
2022-12-29T09:14:13.597Z,0.80
2022-12-29T09:16:59.958Z,0.80
2022-12-29T09:19:29.842Z,0.77
2022-12-29T09:21:58.095Z,0.75
2022-12-29T09:24:26.647Z,1.00
2022-12-29T09:26:55.193Z,0.80
2022-12-29T09:29:23.755Z,0.80
2022-12-29T09:31:52.658Z,0.88
2022-12-29T09:34:21.281Z,1.05
2022-12-29T09:36:50.974Z,1.05
2022-12-29T09:39:19.641Z,1.08
2022-12-29T09:41:54.624Z,0.90
2022-12-29T09:44:28.182Z,0.80
2022-12-29T09:46:58.928Z,0.90
2022-12-29T09:49:33.257Z,0.90
2022-12-29T09:52:08.013Z,0.80
2022-12-29T09:54:43.479Z,0.93
2022-12-29T09:57:18.171Z,0.90
2022-12-29T09:59:48.716Z,0.60
2022-12-29T10:02:34.482Z,0.95
2022-12-29T10:05:03.192Z,1.00
2022-12-29T10:07:47.710Z,1.13
2022-12-29T10:10:32.273Z,1.02
2022-12-29T10:13:09.161Z,0.90
2022-12-29T10:15:57.794Z,0.95
2022-12-29T10:18:50.912Z,0.80
2022-12-29T10:21:29.554Z,1.10
2022-12-29T10:24:04.900Z,0.90
2022-12-29T10:26:38.144Z,0.90
2022-12-29T10:29:08.666Z,0.70
2022-12-29T10:31:41.501Z,0.80
2022-12-29T10:34:22.816Z,1.48
2022-12-29T10:36:57.020Z,1.30
2022-12-29T10:39:33.869Z,0.90
2022-12-29T10:42:12.058Z,0.70
2022-12-29T10:44:40.660Z,0.95
2022-12-29T10:47:14.193Z,0.90
2022-12-29T10:49:44.858Z,0.82
2022-12-29T10:52:15.180Z,1.20
2022-12-29T10:54:51.629Z,0.95
2022-12-29T10:57:29.025Z,0.82
2022-12-29T10:59:57.598Z,1.00
2022-12-29T11:02:48.909Z,1.02
2022-12-29T11:05:24.758Z,1.80
2022-12-29T11:07:58.534Z,2.03
2022-12-29T11:10:38.108Z,1.60
2022-12-29T11:13:14.239Z,1.10
2022-12-29T11:15:43.807Z,1.10
2022-12-29T11:18:26.524Z,1.17
2022-12-29T11:20:57.036Z,1.50
2022-12-29T11:23:30.463Z,1.50
2022-12-29T11:26:19.040Z,1.48
2022-12-29T11:28:49.261Z,1.23
2022-12-29T11:31:23.904Z,1.30
2022-12-29T11:33:52.564Z,0.80
2022-12-29T11:36:24.030Z,1.02
2022-12-29T11:38:54.289Z,1.08
2022-12-29T11:41:25.936Z,0.98
2022-12-29T11:46:26.873Z,1.20
2022-12-29T11:48:59.277Z,1.05
2022-12-29T11:51:30.391Z,0.88
2022-12-29T11:54:00.706Z,1.08
2022-12-29T11:56:41.355Z,1.00
2022-12-29T11:59:38.959Z,1.10
2022-12-29T12:02:43.711Z,0.82
2022-12-29T12:05:28.014Z,1.10
2022-12-29T12:08:04.437Z,1.10
2022-12-29T12:10:39.778Z,1.13
2022-12-29T12:13:20.163Z,0.95
2022-12-29T12:15:57.005Z,0.75
2022-12-29T12:18:38.803Z,1.17
2022-12-29T12:21:16.131Z,1.10
2022-12-29T12:24:02.836Z,1.20
2022-12-29T12:26:36.345Z,1.60
2022-12-29T12:29:14.341Z,2.55
2022-12-29T12:31:48.783Z,2.92
2022-12-29T12:34:23.772Z,2.35
2022-12-29T12:37:05.785Z,2.05
2022-12-29T12:39:43.135Z,1.65
2022-12-29T12:42:27.818Z,1.65
2022-12-29T12:45:12.653Z,1.50
2022-12-29T12:47:54.362Z,1.92
2022-12-29T12:50:45.630Z,2.10
2022-12-29T12:53:46.374Z,1.75
2022-12-29T12:56:41.258Z,1.55
2022-12-29T12:59:19.504Z,2.00
2022-12-29T13:01:58.378Z,2.20
2022-12-29T13:04:59.766Z,1.50
2022-12-29T13:07:39.882Z,2.08
2022-12-29T13:10:40.975Z,1.90
2022-12-29T13:13:39.976Z,1.80
2022-12-29T13:16:16.689Z,1.90
2022-12-29T13:18:53.222Z,1.75
2022-12-29T13:21:35.247Z,1.60
2022-12-29T13:24:09.611Z,1.45
2022-12-29T13:26:44.317Z,1.63
2022-12-29T13:29:19.865Z,1.50
2022-12-29T13:31:55.899Z,1.63
2022-12-29T13:34:33.280Z,1.52
2022-12-29T13:37:04.855Z,1.30
2022-12-29T13:42:05.605Z,1.58
2022-12-29T13:44:37.713Z,1.05
2022-12-29T13:47:16.499Z,1.00
2022-12-29T13:49:47.167Z,1.25
2022-12-29T13:52:23.939Z,0.90
2022-12-29T13:55:00.284Z,1.20
2022-12-29T13:57:41.913Z,1.10
2022-12-29T14:00:15.034Z,1.40
2022-12-29T14:02:49.677Z,1.38
2022-12-29T14:05:31.733Z,1.08
2022-12-29T14:08:01.604Z,1.15
2022-12-29T14:10:31.809Z,1.10
2022-12-29T14:13:05.163Z,1.08
2022-12-29T14:15:34.531Z,1.20
2022-12-29T14:18:11.895Z,1.30
2022-12-29T14:20:42.723Z,1.20
2022-12-29T14:23:30.730Z,1.48
2022-12-29T14:26:00.648Z,1.13
2022-12-29T14:28:30.229Z,1.40
2022-12-29T14:30:59.249Z,1.30
2022-12-29T14:33:29.090Z,1.48
2022-12-29T14:35:59.592Z,1.20
2022-12-29T14:38:31.361Z,1.70
2022-12-29T14:41:26.045Z,1.88
2022-12-29T14:43:57.909Z,1.38
2022-12-29T14:46:27.066Z,1.33
2022-12-29T14:49:02.201Z,1.50
2022-12-29T14:51:36.874Z,1.20
2022-12-29T14:54:38.271Z,1.30
2022-12-29T14:57:11.271Z,1.23
2022-12-29T14:59:39.900Z,1.33
2022-12-29T15:02:21.026Z,1.30
2022-12-29T15:04:49.920Z,1.38
2022-12-29T15:07:21.780Z,1.17
2022-12-29T15:09:56.729Z,1.50
2022-12-29T15:12:35.058Z,1.45
2022-12-29T15:15:03.549Z,1.40
2022-12-29T15:17:32.904Z,1.75
2022-12-29T15:22:47.611Z,1.20
2022-12-29T15:25:18.936Z,1.42
2022-12-29T15:27:52.385Z,1.65
2022-12-29T15:30:21.497Z,1.38
2022-12-29T15:32:53.928Z,1.42
2022-12-29T15:35:29.638Z,1.42
2022-12-29T15:38:00.067Z,1.42
2022-12-29T15:40:30.165Z,1.40
2022-12-29T15:43:35.411Z,1.70
2022-12-29T15:46:04.099Z,1.50
2022-12-29T15:48:33.657Z,1.48
2022-12-29T15:51:02.900Z,1.52
2022-12-29T15:53:34.772Z,1.35
2022-12-29T15:56:07.624Z,1.70
2022-12-29T15:58:45.504Z,1.40
2022-12-29T16:01:21.107Z,1.17
2022-12-29T16:03:50.057Z,1.48
2022-12-29T16:06:30.419Z,1.92
2022-12-29T16:09:03.472Z,1.73
2022-12-29T16:11:38.451Z,2.13
2022-12-29T16:14:11.198Z,3.63
2022-12-29T16:16:41.883Z,3.13
2022-12-29T16:19:15.857Z,3.83
2022-12-29T16:21:44.946Z,2.88
2022-12-29T16:24:18.802Z,2.85
2022-12-29T16:26:51.993Z,2.35
2022-12-29T16:29:23.270Z,2.40
2022-12-29T16:32:01.715Z,1.90
2022-12-29T16:34:33.061Z,2.00
2022-12-29T16:37:03.669Z,1.58
2022-12-29T16:39:40.943Z,1.93
2022-12-29T16:42:37.684Z,1.95
2022-12-29T16:46:04.756Z,1.67
2022-12-29T16:48:35.632Z,1.63
2022-12-29T16:51:06.623Z,1.73
2022-12-29T16:53:37.892Z,1.92
2022-12-29T16:56:15.624Z,1.90
2022-12-29T16:58:49.375Z,1.63
2022-12-29T17:01:20.308Z,1.67
2022-12-29T17:03:52.113Z,1.45
2022-12-29T17:06:22.538Z,1.67
2022-12-29T17:08:52.301Z,1.90
2022-12-29T17:11:43.492Z,2.00
2022-12-29T17:14:25.325Z,1.73
2022-12-29T17:19:27.649Z,1.58
2022-12-29T17:21:56.197Z,1.73
2022-12-29T17:24:24.737Z,1.90
2022-12-29T17:26:58.360Z,2.08
2022-12-29T17:29:34.929Z,2.00
2022-12-29T17:32:05.697Z,1.65
2022-12-29T17:34:34.593Z,1.92
2022-12-29T17:37:03.402Z,1.77
2022-12-29T17:39:32.058Z,2.10
2022-12-29T17:42:01.628Z,1.95
2022-12-29T17:44:30.029Z,2.10
2022-12-29T17:46:58.541Z,2.60
2022-12-29T17:49:27.109Z,2.80
2022-12-29T17:51:55.845Z,2.67
2022-12-29T17:54:26.562Z,2.50
2022-12-29T17:56:54.926Z,2.90
2022-12-29T17:59:25.266Z,2.63
2022-12-29T18:01:53.894Z,2.60
2022-12-29T18:04:22.661Z,2.78
2022-12-29T18:06:51.143Z,2.85
2022-12-29T18:09:21.130Z,3.30
2022-12-29T18:11:49.451Z,3.40
2022-12-29T18:14:18.760Z,3.55
2022-12-29T18:16:48.384Z,3.20
2022-12-29T18:19:17.330Z,3.58
2022-12-29T18:21:45.846Z,3.03
2022-12-29T18:24:16.148Z,3.83
2022-12-29T18:26:44.712Z,4.45
2022-12-29T18:29:13.248Z,5.43
2022-12-29T18:31:41.854Z,4.80
2022-12-29T18:34:15.798Z,3.53
2022-12-29T18:36:44.538Z,3.65
2022-12-29T18:39:13.382Z,3.40
2022-12-29T18:41:41.711Z,3.60
2022-12-29T18:44:13.932Z,3.10
2022-12-29T18:46:42.649Z,3.08
2022-12-29T18:49:10.978Z,3.03
2022-12-29T18:51:43.182Z,2.67
2022-12-29T18:54:29.566Z,2.80
2022-12-29T18:56:58.585Z,3.45
2022-12-29T18:59:27.432Z,3.70
2022-12-29T19:01:55.967Z,3.00
2022-12-29T19:04:24.564Z,3.28
2022-12-29T19:06:54.245Z,3.10
2022-12-29T19:09:22.751Z,4.43
2022-12-29T19:11:51.276Z,3.70
2022-12-29T19:14:19.878Z,2.75
2022-12-29T19:16:48.727Z,2.90
2022-12-29T19:19:18.133Z,2.90
2022-12-29T19:21:46.697Z,2.80
2022-12-29T19:24:16.320Z,2.72
2022-12-29T19:26:44.941Z,3.13
2022-12-29T19:29:16.424Z,3.17
2022-12-29T19:31:45.222Z,2.58
2022-12-29T19:34:15.942Z,2.95
2022-12-29T19:36:44.540Z,2.65
2022-12-29T19:39:13.391Z,2.78
2022-12-29T19:41:43.469Z,3.10
2022-12-29T19:44:12.124Z,3.05
2022-12-29T19:46:40.782Z,3.30
2022-12-29T19:49:09.293Z,4.03
2022-12-29T19:51:37.820Z,4.90
2022-12-29T19:54:06.496Z,4.57
2022-12-29T19:56:35.167Z,4.63
2022-12-29T19:59:04.889Z,4.60
2022-12-29T20:01:33.625Z,4.15
2022-12-29T20:04:02.929Z,3.33
2022-12-29T20:06:31.372Z,3.83
2022-12-29T20:09:00.006Z,3.80
2022-12-29T20:11:28.615Z,46.92
2022-12-29T20:13:57.391Z,72.30
2022-12-29T20:16:27.361Z,115.13
2022-12-29T20:18:56.415Z,84.57
2022-12-29T20:21:25.960Z,82.07
2022-12-29T20:23:55.058Z,82.50
2022-12-29T20:26:26.650Z,65.53
2022-12-29T20:31:27.756Z,49.53
2022-12-29T20:33:56.177Z,35.50
2022-12-29T20:36:26.647Z,39.78
2022-12-29T20:38:56.702Z,62.60
2022-12-29T20:41:25.284Z,66.80
2022-12-29T20:43:54.533Z,65.70
2022-12-29T20:46:29.910Z,55.28
2022-12-29T20:49:02.261Z,43.08
2022-12-29T20:51:59.345Z,42.25
2022-12-29T20:54:20.067Z,25.83
2022-12-29T20:56:48.787Z,20.73
2022-12-29T20:59:27.361Z,44.42
2022-12-29T21:01:57.494Z,44.83
2022-12-29T21:04:27.598Z,53.80
2022-12-29T21:06:56.380Z,106.93
2022-12-29T21:09:24.924Z,89.57
2022-12-29T21:11:53.622Z,60.95
2022-12-29T21:14:22.335Z,44.00
2022-12-29T21:16:50.906Z,33.97
2022-12-29T21:19:19.453Z,23.58
2022-12-29T21:21:51.922Z,21.55
2022-12-29T21:24:20.517Z,17.90
2022-12-29T21:26:49.685Z,15.68
2022-12-29T21:29:18.217Z,14.98
2022-12-29T21:31:46.955Z,16.00
2022-12-29T21:34:15.588Z,15.63
2022-12-29T21:36:44.194Z,14.00
2022-12-29T21:39:16.394Z,12.18
2022-12-29T21:41:44.997Z,9.93
2022-12-29T21:44:31.346Z,8.68
2022-12-29T21:46:59.759Z,8.57
2022-12-29T21:49:28.715Z,7.80
2022-12-29T21:51:57.717Z,6.20
2022-12-29T21:54:47.659Z,5.32
2022-12-29T21:57:38.817Z,5.13
2022-12-29T22:00:26.731Z,4.25
2022-12-29T22:03:20.162Z,4.10
2022-12-29T22:06:09.436Z,3.70
2022-12-29T22:08:55.408Z,3.55
2022-12-29T22:11:42.533Z,3.50
2022-12-29T22:14:11.052Z,3.40
2022-12-29T22:16:39.258Z,3.20
2022-12-29T22:19:08.851Z,3.08
2022-12-29T22:21:37.312Z,3.00
2022-12-29T22:24:06.045Z,3.30
2022-12-29T22:26:35.736Z,3.60
2022-12-29T22:29:04.291Z,3.63
2022-12-29T22:31:33.873Z,3.13
2022-12-29T22:34:04.259Z,3.78
2022-12-29T22:36:33.473Z,3.13
2022-12-29T22:39:02.057Z,3.33
2022-12-29T22:41:30.350Z,3.10
2022-12-29T22:43:59.951Z,3.72
2022-12-29T22:46:28.286Z,2.90
2022-12-29T22:48:58.279Z,3.10
2022-12-29T22:51:26.887Z,2.88
2022-12-29T22:53:55.439Z,2.63
2022-12-29T22:56:23.644Z,3.05
2022-12-29T22:58:51.923Z,2.67
2022-12-29T23:01:22.718Z,2.85
2022-12-29T23:03:51.424Z,3.35
2022-12-29T23:06:20.205Z,2.70
2022-12-29T23:08:48.556Z,2.50
2022-12-29T23:11:17.359Z,2.40
2022-12-29T23:13:46.180Z,2.00
2022-12-29T23:16:15.960Z,2.25
2022-12-29T23:18:46.727Z,1.80
2022-12-29T23:21:15.796Z,2.03
2022-12-29T23:23:57.005Z,1.70
2022-12-29T23:26:27.499Z,1.80
2022-12-29T23:29:00.296Z,1.50
2022-12-29T23:31:29.790Z,1.50
2022-12-29T23:33:59.771Z,1.40
2022-12-29T23:36:28.713Z,1.65
2022-12-29T23:38:57.622Z,1.70
2022-12-29T23:41:26.470Z,1.30
2022-12-29T23:43:55.154Z,1.50
2022-12-29T23:46:25.752Z,1.30
2022-12-29T23:48:54.250Z,1.25
2022-12-29T23:51:24.146Z,1.30
2022-12-29T23:53:52.714Z,1.10
2022-12-29T23:56:22.861Z,1.40
2022-12-29T23:58:51.538Z,1.10
